sensor_id;sensor_type;location;lat;lon;timestamp;P1;P2;P0
68341;PMS7003;55668;52.310;21.066;2023-06-22T00:02:23;45;39;
68341;PMS7003;55668;52.310;21.066;2023-06-22T00:18:18;48;41;
68341;PMS7003;55668;52.310;21.066;2023-06-22T00:50:18;44;38;
68341;PMS7003;55668;52.310;21.066;2023-06-22T01:21:30;45;39;
68341;PMS7003;55668;52.310;21.066;2023-06-22T02:05:07;41;36;
68341;PMS7003;55668;52.310;21.066;2023-06-22T02:22:16;41;36;
68341;PMS7003;55668;52.310;21.066;2023-06-22T02:38:59;43;38;
68341;PMS7003;55668;52.310;21.066;2023-06-22T02:51:28;40;36;
68341;PMS7003;55668;52.310;21.066;2023-06-22T03:12:36;42;37;
68341;PMS7003;55668;52.310;21.066;2023-06-22T03:21:49;46;39;
68341;PMS7003;55668;52.310;21.066;2023-06-22T03:38:48;45;39;
68341;PMS7003;55668;52.310;21.066;2023-06-22T04:09:34;45;39;
68341;PMS7003;55668;52.310;21.066;2023-06-22T04:28:15;48;41;
68341;PMS7003;55668;52.310;21.066;2023-06-22T04:39:58;45;39;
68341;PMS7003;55668;52.310;21.066;2023-06-22T04:55:28;48;41;
68341;PMS7003;55668;52.310;21.066;2023-06-22T05:11:14;44;36;
68341;PMS7003;55668;52.310;21.066;2023-06-22T05:24:36;46;40;
68341;PMS7003;55668;52.310;21.066;2023-06-22T05:55:29;50;42;
68341;PMS7003;55668;52.310;21.066;2023-06-22T06:44:16;43;38;
68341;PMS7003;55668;52.310;21.066;2023-06-22T06:57:04;35;33;
68341;PMS7003;55668;52.310;21.066;2023-06-22T07:29:32;33;32;
68341;PMS7003;55668;52.310;21.066;2023-06-22T07:42:43;34;32;
68341;PMS7003;55668;52.310;21.066;2023-06-22T07:58:43;23;23;
68341;PMS7003;55668;52.310;21.066;2023-06-22T08:14:51;19;19;
68341;PMS7003;55668;52.310;21.066;2023-06-22T08:28:51;14;14;
68341;PMS7003;55668;52.310;21.066;2023-06-22T08:45:56;14;14;
68341;PMS7003;55668;52.310;21.066;2023-06-22T09:15:17;10;10;
68341;PMS7003;55668;52.310;21.066;2023-06-22T09:32:22;7;7;
68341;PMS7003;55668;52.310;21.066;2023-06-22T09:45:45;7;7;
68341;PMS7003;55668;52.310;21.066;2023-06-22T10:04:23;10;10;
68341;PMS7003;55668;52.310;21.066;2023-06-22T10:16:36;8;8;
68341;PMS7003;55668;52.310;21.066;2023-06-22T10:47:42;11;11;
68341;PMS7003;55668;52.310;21.066;2023-06-22T11:03:49;12;11;
68341;PMS7003;55668;52.310;21.066;2023-06-22T11:19:31;16;14;
68341;PMS7003;55668;52.310;21.066;2023-06-22T11:33:56;14;12;
68341;PMS7003;55668;52.310;21.066;2023-06-22T11:51:08;12;12;
68341;PMS7003;55668;52.310;21.066;2023-06-22T12:19:47;13;13;
68341;PMS7003;55668;52.310;21.066;2023-06-22T12:50:47;13;13;
68341;PMS7003;55668;52.310;21.066;2023-06-22T13:07:08;18;17;
68341;PMS7003;55668;52.310;21.066;2023-06-22T13:20:59;14;14;
68341;PMS7003;55668;52.310;21.066;2023-06-22T13:38:20;13;13;
68341;PMS7003;55668;52.310;21.066;2023-06-22T13:53:19;14;14;
68341;PMS7003;55668;52.310;21.066;2023-06-22T14:24:27;16;14;
68341;PMS7003;55668;52.310;21.066;2023-06-22T14:38:41;14;14;
68341;PMS7003;55668;52.310;21.066;2023-06-22T15:24:12;13;13;
68341;PMS7003;55668;52.310;21.066;2023-06-22T15:40:06;13;13;
68341;PMS7003;55668;52.310;21.066;2023-06-22T15:56:38;14;14;
68341;PMS7003;55668;52.310;21.066;2023-06-22T16:11:04;11;11;
68341;PMS7003;55668;52.310;21.066;2023-06-22T16:24:45;13;13;
68341;PMS7003;55668;52.310;21.066;2023-06-22T16:42:09;11;11;
68341;PMS7003;55668;52.310;21.066;2023-06-22T17:27:41;13;13;
68341;PMS7003;55668;52.310;21.066;2023-06-22T18:15:14;16;15;
68341;PMS7003;55668;52.310;21.066;2023-06-22T18:30:13;15;15;
68341;PMS7003;55668;52.310;21.066;2023-06-22T18:43:25;15;15;
68341;PMS7003;55668;52.310;21.066;2023-06-22T19:01:50;13;13;
68341;PMS7003;55668;52.310;21.066;2023-06-22T19:16:46;14;14;
68341;PMS7003;55668;52.310;21.066;2023-06-22T19:31:34;13;13;
68341;PMS7003;55668;52.310;21.066;2023-06-22T19:47:20;14;14;
68341;PMS7003;55668;52.310;21.066;2023-06-22T20:00:27;13;13;
68341;PMS7003;55668;52.310;21.066;2023-06-22T20:15:20;16;16;
68341;PMS7003;55668;52.310;21.066;2023-06-22T20:30:41;15;15;
68341;PMS7003;55668;52.310;21.066;2023-06-22T20:49:49;18;17;
68341;PMS7003;55668;52.310;21.066;2023-06-22T21:02:45;15;15;
68341;PMS7003;55668;52.310;21.066;2023-06-22T21:18:32;17;17;
68341;PMS7003;55668;52.310;21.066;2023-06-22T21:33:34;16;16;
68341;PMS7003;55668;52.310;21.066;2023-06-22T21:47:17;18;18;
68341;PMS7003;55668;52.310;21.066;2023-06-22T22:05:30;25;25;
68341;PMS7003;55668;52.310;21.066;2023-06-22T22:21:38;20;19;
68341;PMS7003;55668;52.310;21.066;2023-06-22T22:48:56;20;20;
68341;PMS7003;55668;52.310;21.066;2023-06-22T23:04:41;19;19;
68341;PMS7003;55668;52.310;21.066;2023-06-22T23:22:28;16;16;
